sensor_id;sensor_type;location;lat;lon;timestamp;temperature;humidity
21580;DHT22;10951;59.656;9.666;2022-12-08T00:01:40;-9.60;98.90
21580;DHT22;10951;59.656;9.666;2022-12-08T00:04:13;-9.60;99.00
21580;DHT22;10951;59.656;9.666;2022-12-08T00:06:43;-9.60;99.10
21580;DHT22;10951;59.656;9.666;2022-12-08T00:09:37;-9.60;99.30
21580;DHT22;10951;59.656;9.666;2022-12-08T00:12:12;-9.70;99.70
21580;DHT22;10951;59.656;9.666;2022-12-08T00:14:43;-9.60;99.90
21580;DHT22;10951;59.656;9.666;2022-12-08T00:17:12;-9.70;99.90
21580;DHT22;10951;59.656;9.666;2022-12-08T00:19:40;-9.70;99.80
21580;DHT22;10951;59.656;9.666;2022-12-08T00:22:08;-9.70;99.90
21580;DHT22;10951;59.656;9.666;2022-12-08T00:24:37;-9.70;99.90
21580;DHT22;10951;59.656;9.666;2022-12-08T00:27:08;-9.70;99.80
21580;DHT22;10951;59.656;9.666;2022-12-08T00:29:35;-9.70;99.70
21580;DHT22;10951;59.656;9.666;2022-12-08T00:32:03;-9.70;99.80
21580;DHT22;10951;59.656;9.666;2022-12-08T00:34:31;-9.70;99.80
21580;DHT22;10951;59.656;9.666;2022-12-08T00:36:59;-9.70;99.90
21580;DHT22;10951;59.656;9.666;2022-12-08T00:39:26;-9.70;99.70
21580;DHT22;10951;59.656;9.666;2022-12-08T00:41:53;-9.70;99.60
21580;DHT22;10951;59.656;9.666;2022-12-08T00:44:42;-9.60;99.40
21580;DHT22;10951;59.656;9.666;2022-12-08T00:47:10;-9.60;99.50
21580;DHT22;10951;59.656;9.666;2022-12-08T00:49:37;-9.60;99.40
21580;DHT22;10951;59.656;9.666;2022-12-08T00:52:04;-9.50;99.10
21580;DHT22;10951;59.656;9.666;2022-12-08T00:54:31;-9.50;98.80
21580;DHT22;10951;59.656;9.666;2022-12-08T00:56:58;-9.50;98.70
21580;DHT22;10951;59.656;9.666;2022-12-08T00:59:25;-9.60;98.80
21580;DHT22;10951;59.656;9.666;2022-12-08T01:01:51;-9.60;98.90
21580;DHT22;10951;59.656;9.666;2022-12-08T01:04:19;-9.60;98.90
21580;DHT22;10951;59.656;9.666;2022-12-08T01:06:47;-9.60;99.00
21580;DHT22;10951;59.656;9.666;2022-12-08T01:09:14;-9.60;99.10
21580;DHT22;10951;59.656;9.666;2022-12-08T01:11:41;-9.60;99.10
21580;DHT22;10951;59.656;9.666;2022-12-08T01:14:10;-9.60;99.20
21580;DHT22;10951;59.656;9.666;2022-12-08T01:16:37;-9.60;99.40
21580;DHT22;10951;59.656;9.666;2022-12-08T01:19:11;-9.50;99.30
21580;DHT22;10951;59.656;9.666;2022-12-08T01:21:40;-9.40;99.00
21580;DHT22;10951;59.656;9.666;2022-12-08T01:24:13;-9.40;99.00
21580;DHT22;10951;59.656;9.666;2022-12-08T01:26:41;-9.40;99.00
21580;DHT22;10951;59.656;9.666;2022-12-08T01:29:09;-9.40;99.00
21580;DHT22;10951;59.656;9.666;2022-12-08T01:31:36;-9.50;99.00
21580;DHT22;10951;59.656;9.666;2022-12-08T01:34:04;-9.50;98.90
21580;DHT22;10951;59.656;9.666;2022-12-08T01:36:32;-9.40;98.90
21580;DHT22;10951;59.656;9.666;2022-12-08T01:39:04;-9.40;98.80
21580;DHT22;10951;59.656;9.666;2022-12-08T01:41:33;-9.40;98.70
21580;DHT22;10951;59.656;9.666;2022-12-08T01:46:50;-9.50;99.00
21580;DHT22;10951;59.656;9.666;2022-12-08T01:49:23;-9.60;99.20
21580;DHT22;10951;59.656;9.666;2022-12-08T01:54:18;-9.70;99.10
21580;DHT22;10951;59.656;9.666;2022-12-08T01:56:53;-9.70;99.20
21580;DHT22;10951;59.656;9.666;2022-12-08T01:59:21;-9.80;99.10
21580;DHT22;10951;59.656;9.666;2022-12-08T02:01:50;-9.80;99.20
21580;DHT22;10951;59.656;9.666;2022-12-08T02:04:17;-9.80;99.20
21580;DHT22;10951;59.656;9.666;2022-12-08T02:06:45;-9.90;99.30
21580;DHT22;10951;59.656;9.666;2022-12-08T02:09:13;-9.90;99.40
21580;DHT22;10951;59.656;9.666;2022-12-08T02:11:40;-9.90;99.40
21580;DHT22;10951;59.656;9.666;2022-12-08T02:14:10;-9.90;99.50
21580;DHT22;10951;59.656;9.666;2022-12-08T02:16:59;-9.80;99.40
21580;DHT22;10951;59.656;9.666;2022-12-08T02:36:25;-9.70;99.10
21580;DHT22;10951;59.656;9.666;2022-12-08T02:38:59;-9.70;98.80
21580;DHT22;10951;59.656;9.666;2022-12-08T02:41:40;-9.70;99.00
21580;DHT22;10951;59.656;9.666;2022-12-08T02:44:22;-9.60;98.90
21580;DHT22;10951;59.656;9.666;2022-12-08T02:46:55;-9.70;98.80
21580;DHT22;10951;59.656;9.666;2022-12-08T02:49:33;-9.70;98.80
21580;DHT22;10951;59.656;9.666;2022-12-08T02:52:05;-9.70;98.80
21580;DHT22;10951;59.656;9.666;2022-12-08T02:54:33;-9.70;98.90
21580;DHT22;10951;59.656;9.666;2022-12-08T03:02:48;-9.70;98.90
21580;DHT22;10951;59.656;9.666;2022-12-08T03:09:05;-9.70;98.90
21580;DHT22;10951;59.656;9.666;2022-12-08T03:11:42;-9.70;98.90
21580;DHT22;10951;59.656;9.666;2022-12-08T03:14:13;-9.70;99.00
21580;DHT22;10951;59.656;9.666;2022-12-08T03:16:45;-9.70;98.90
21580;DHT22;10951;59.656;9.666;2022-12-08T03:19:19;-9.60;98.90
21580;DHT22;10951;59.656;9.666;2022-12-08T03:21:51;-9.60;98.70
21580;DHT22;10951;59.656;9.666;2022-12-08T03:24:21;-9.60;98.80
21580;DHT22;10951;59.656;9.666;2022-12-08T03:27:01;-9.60;98.60
21580;DHT22;10951;59.656;9.666;2022-12-08T03:29:29;-9.70;98.60
21580;DHT22;10951;59.656;9.666;2022-12-08T03:32:15;-9.70;98.90
21580;DHT22;10951;59.656;9.666;2022-12-08T03:34:46;-9.70;98.80
21580;DHT22;10951;59.656;9.666;2022-12-08T03:37:14;-9.70;98.90
21580;DHT22;10951;59.656;9.666;2022-12-08T03:39:41;-9.80;98.90
21580;DHT22;10951;59.656;9.666;2022-12-08T03:42:09;-9.80;99.00
21580;DHT22;10951;59.656;9.666;2022-12-08T03:44:36;-9.80;99.10
21580;DHT22;10951;59.656;9.666;2022-12-08T03:47:02;-9.90;99.20
21580;DHT22;10951;59.656;9.666;2022-12-08T03:49:30;-9.90;99.30
21580;DHT22;10951;59.656;9.666;2022-12-08T03:51:56;-9.80;99.20
21580;DHT22;10951;59.656;9.666;2022-12-08T03:54:23;-9.80;99.10
21580;DHT22;10951;59.656;9.666;2022-12-08T03:56:50;-9.80;99.10
21580;DHT22;10951;59.656;9.666;2022-12-08T03:59:17;-9.80;99.30
21580;DHT22;10951;59.656;9.666;2022-12-08T04:01:44;-9.80;99.30
21580;DHT22;10951;59.656;9.666;2022-12-08T04:04:12;-9.70;99.60
21580;DHT22;10951;59.656;9.666;2022-12-08T04:06:39;-9.70;99.60
21580;DHT22;10951;59.656;9.666;2022-12-08T04:09:08;-9.60;99.50
21580;DHT22;10951;59.656;9.666;2022-12-08T04:11:35;-9.60;99.40
21580;DHT22;10951;59.656;9.666;2022-12-08T04:14:02;-9.60;99.40
21580;DHT22;10951;59.656;9.666;2022-12-08T04:16:29;-9.60;99.40
21580;DHT22;10951;59.656;9.666;2022-12-08T04:18:56;-9.50;99.30
21580;DHT22;10951;59.656;9.666;2022-12-08T04:21:23;-9.50;99.30
21580;DHT22;10951;59.656;9.666;2022-12-08T04:23:50;-9.50;99.30
21580;DHT22;10951;59.656;9.666;2022-12-08T04:26:24;-9.50;99.20
21580;DHT22;10951;59.656;9.666;2022-12-08T04:28:51;-9.50;99.00
21580;DHT22;10951;59.656;9.666;2022-12-08T04:31:18;-9.50;98.90
21580;DHT22;10951;59.656;9.666;2022-12-08T04:33:45;-9.40;99.10
21580;DHT22;10951;59.656;9.666;2022-12-08T04:36:12;-9.40;99.10
21580;DHT22;10951;59.656;9.666;2022-12-08T04:38:39;-9.40;99.20
21580;DHT22;10951;59.656;9.666;2022-12-08T04:41:06;-9.40;98.80
21580;DHT22;10951;59.656;9.666;2022-12-08T04:43:34;-9.30;98.90
21580;DHT22;10951;59.656;9.666;2022-12-08T04:46:05;-9.30;98.90
21580;DHT22;10951;59.656;9.666;2022-12-08T04:48:33;-9.30;98.90
21580;DHT22;10951;59.656;9.666;2022-12-08T04:51:00;-9.20;98.70
21580;DHT22;10951;59.656;9.666;2022-12-08T04:53:27;-9.20;98.80
21580;DHT22;10951;59.656;9.666;2022-12-08T04:55:54;-9.10;98.90
21580;DHT22;10951;59.656;9.666;2022-12-08T04:58:21;-9.10;98.90
21580;DHT22;10951;59.656;9.666;2022-12-08T05:00:48;-9.00;99.10
21580;DHT22;10951;59.656;9.666;2022-12-08T05:03:15;-9.00;99.30
21580;DHT22;10951;59.656;9.666;2022-12-08T05:05:43;-8.90;99.70
21580;DHT22;10951;59.656;9.666;2022-12-08T05:08:10;-8.90;99.90
21580;DHT22;10951;59.656;9.666;2022-12-08T05:10:37;-8.80;99.90
21580;DHT22;10951;59.656;9.666;2022-12-08T05:13:04;-8.80;99.90
21580;DHT22;10951;59.656;9.666;2022-12-08T05:15:31;-8.80;99.90
21580;DHT22;10951;59.656;9.666;2022-12-08T05:17:58;-8.80;99.90
21580;DHT22;10951;59.656;9.666;2022-12-08T05:20:25;-8.70;99.90
21580;DHT22;10951;59.656;9.666;2022-12-08T05:22:52;-8.70;99.90
21580;DHT22;10951;59.656;9.666;2022-12-08T05:25:18;-8.70;99.90
21580;DHT22;10951;59.656;9.666;2022-12-08T05:27:45;-8.60;99.90
21580;DHT22;10951;59.656;9.666;2022-12-08T05:30:12;-8.60;99.90
21580;DHT22;10951;59.656;9.666;2022-12-08T05:32:39;-8.60;99.90
21580;DHT22;10951;59.656;9.666;2022-12-08T05:35:06;-8.60;99.90
21580;DHT22;10951;59.656;9.666;2022-12-08T05:37:35;-8.60;99.90
21580;DHT22;10951;59.656;9.666;2022-12-08T05:40:02;-8.60;99.90
21580;DHT22;10951;59.656;9.666;2022-12-08T05:42:30;-8.50;99.90
21580;DHT22;10951;59.656;9.666;2022-12-08T05:44:57;-8.50;99.90
21580;DHT22;10951;59.656;9.666;2022-12-08T05:47:24;-8.50;99.90
21580;DHT22;10951;59.656;9.666;2022-12-08T05:49:51;-8.50;99.90
21580;DHT22;10951;59.656;9.666;2022-12-08T05:52:18;-8.50;99.90
21580;DHT22;10951;59.656;9.666;2022-12-08T05:54:45;-8.50;99.90
21580;DHT22;10951;59.656;9.666;2022-12-08T05:57:12;-8.40;99.90
21580;DHT22;10951;59.656;9.666;2022-12-08T05:59:39;-8.40;99.90
21580;DHT22;10951;59.656;9.666;2022-12-08T06:02:06;-8.30;99.90
21580;DHT22;10951;59.656;9.666;2022-12-08T06:04:34;-8.30;99.90
21580;DHT22;10951;59.656;9.666;2022-12-08T06:07:01;-8.20;99.90
21580;DHT22;10951;59.656;9.666;2022-12-08T06:09:29;-8.10;99.90
21580;DHT22;10951;59.656;9.666;2022-12-08T06:11:55;-8.10;99.90
21580;DHT22;10951;59.656;9.666;2022-12-08T06:14:22;-8.00;99.90
21580;DHT22;10951;59.656;9.666;2022-12-08T06:16:49;-8.10;99.90
21580;DHT22;10951;59.656;9.666;2022-12-08T06:19:16;-8.00;99.90
21580;DHT22;10951;59.656;9.666;2022-12-08T06:21:43;-8.00;99.90
21580;DHT22;10951;59.656;9.666;2022-12-08T06:24:10;-8.00;99.90
21580;DHT22;10951;59.656;9.666;2022-12-08T06:26:37;-8.10;99.90
21580;DHT22;10951;59.656;9.666;2022-12-08T06:29:06;-8.00;99.90
21580;DHT22;10951;59.656;9.666;2022-12-08T06:31:33;-8.10;99.90
21580;DHT22;10951;59.656;9.666;2022-12-08T06:34:00;-8.10;99.90
21580;DHT22;10951;59.656;9.666;2022-12-08T06:36:28;-8.10;99.90
21580;DHT22;10951;59.656;9.666;2022-12-08T06:38:55;-8.10;99.90
21580;DHT22;10951;59.656;9.666;2022-12-08T06:41:22;-8.10;99.90
21580;DHT22;10951;59.656;9.666;2022-12-08T06:43:49;-8.10;99.90
21580;DHT22;10951;59.656;9.666;2022-12-08T06:46:18;-8.00;99.90
21580;DHT22;10951;59.656;9.666;2022-12-08T06:48:45;-8.10;99.90
21580;DHT22;10951;59.656;9.666;2022-12-08T06:51:18;-8.10;99.90
21580;DHT22;10951;59.656;9.666;2022-12-08T06:53:45;-8.10;99.90
21580;DHT22;10951;59.656;9.666;2022-12-08T06:56:13;-8.10;99.90
21580;DHT22;10951;59.656;9.666;2022-12-08T06:58:41;-8.10;99.90
21580;DHT22;10951;59.656;9.666;2022-12-08T07:01:16;-8.10;99.90
21580;DHT22;10951;59.656;9.666;2022-12-08T07:03:43;-8.10;99.90
21580;DHT22;10951;59.656;9.666;2022-12-08T07:06:15;-8.20;99.90
21580;DHT22;10951;59.656;9.666;2022-12-08T07:08:43;-8.20;99.90
21580;DHT22;10951;59.656;9.666;2022-12-08T07:11:11;-8.20;99.90
21580;DHT22;10951;59.656;9.666;2022-12-08T07:13:46;-8.20;99.90
21580;DHT22;10951;59.656;9.666;2022-12-08T07:16:13;-8.10;99.90
21580;DHT22;10951;59.656;9.666;2022-12-08T07:18:40;-8.20;99.90
21580;DHT22;10951;59.656;9.666;2022-12-08T07:21:09;-8.10;99.90
21580;DHT22;10951;59.656;9.666;2022-12-08T07:23:37;-8.20;99.90
21580;DHT22;10951;59.656;9.666;2022-12-08T07:26:06;-8.20;99.90
21580;DHT22;10951;59.656;9.666;2022-12-08T07:28:35;-8.20;99.90
21580;DHT22;10951;59.656;9.666;2022-12-08T07:31:03;-8.20;99.90
21580;DHT22;10951;59.656;9.666;2022-12-08T07:33:31;-8.20;99.90
21580;DHT22;10951;59.656;9.666;2022-12-08T07:36:08;-8.20;99.90
21580;DHT22;10951;59.656;9.666;2022-12-08T07:38:34;-8.20;99.90
21580;DHT22;10951;59.656;9.666;2022-12-08T07:41:01;-8.10;99.90
21580;DHT22;10951;59.656;9.666;2022-12-08T07:43:28;-8.10;99.90
21580;DHT22;10951;59.656;9.666;2022-12-08T07:45:55;-8.10;99.90
21580;DHT22;10951;59.656;9.666;2022-12-08T07:48:22;-8.00;99.90
21580;DHT22;10951;59.656;9.666;2022-12-08T07:50:49;-7.90;99.90
21580;DHT22;10951;59.656;9.666;2022-12-08T07:53:16;-7.90;99.90
21580;DHT22;10951;59.656;9.666;2022-12-08T07:55:43;-7.90;99.90
21580;DHT22;10951;59.656;9.666;2022-12-08T07:58:11;-7.90;99.90
21580;DHT22;10951;59.656;9.666;2022-12-08T08:00:38;-7.90;99.90
21580;DHT22;10951;59.656;9.666;2022-12-08T08:03:05;-7.90;99.90
21580;DHT22;10951;59.656;9.666;2022-12-08T08:05:34;-7.90;99.90
21580;DHT22;10951;59.656;9.666;2022-12-08T08:08:01;-8.00;99.90
21580;DHT22;10951;59.656;9.666;2022-12-08T08:10:29;-7.90;99.90
21580;DHT22;10951;59.656;9.666;2022-12-08T08:12:59;-7.90;99.90
21580;DHT22;10951;59.656;9.666;2022-12-08T08:15:26;-7.90;99.90
21580;DHT22;10951;59.656;9.666;2022-12-08T08:17:53;-7.90;99.90
21580;DHT22;10951;59.656;9.666;2022-12-08T08:20:20;-8.00;99.90
21580;DHT22;10951;59.656;9.666;2022-12-08T08:22:49;-7.90;99.90
21580;DHT22;10951;59.656;9.666;2022-12-08T08:25:18;-7.90;99.90
21580;DHT22;10951;59.656;9.666;2022-12-08T08:27:46;-7.90;99.90
21580;DHT22;10951;59.656;9.666;2022-12-08T08:30:15;-7.90;99.90
21580;DHT22;10951;59.656;9.666;2022-12-08T08:32:49;-7.90;99.90
21580;DHT22;10951;59.656;9.666;2022-12-08T08:35:16;-7.90;99.90
21580;DHT22;10951;59.656;9.666;2022-12-08T08:37:43;-7.80;99.90
21580;DHT22;10951;59.656;9.666;2022-12-08T08:40:16;-7.80;99.90
21580;DHT22;10951;59.656;9.666;2022-12-08T08:42:43;-7.70;99.90
21580;DHT22;10951;59.656;9.666;2022-12-08T08:45:10;-7.70;99.90
21580;DHT22;10951;59.656;9.666;2022-12-08T08:47:37;-7.70;99.90
21580;DHT22;10951;59.656;9.666;2022-12-08T08:50:05;-7.70;99.90
21580;DHT22;10951;59.656;9.666;2022-12-08T08:52:33;-7.70;99.90
21580;DHT22;10951;59.656;9.666;2022-12-08T08:55:00;-7.70;99.90
21580;DHT22;10951;59.656;9.666;2022-12-08T08:57:27;-7.70;99.90
21580;DHT22;10951;59.656;9.666;2022-12-08T08:59:54;-7.70;99.90
21580;DHT22;10951;59.656;9.666;2022-12-08T09:02:21;-7.70;99.90
21580;DHT22;10951;59.656;9.666;2022-12-08T09:04:49;-7.70;99.90
21580;DHT22;10951;59.656;9.666;2022-12-08T09:07:16;-7.70;99.90
21580;DHT22;10951;59.656;9.666;2022-12-08T09:09:43;-7.80;99.90
21580;DHT22;10951;59.656;9.666;2022-12-08T09:12:11;-7.70;99.90
21580;DHT22;10951;59.656;9.666;2022-12-08T09:14:39;-7.70;99.90
21580;DHT22;10951;59.656;9.666;2022-12-08T09:17:07;-7.70;99.90
21580;DHT22;10951;59.656;9.666;2022-12-08T09:19:34;-7.70;99.90
21580;DHT22;10951;59.656;9.666;2022-12-08T09:22:01;-7.70;99.90
21580;DHT22;10951;59.656;9.666;2022-12-08T09:24:28;-7.70;99.90
21580;DHT22;10951;59.656;9.666;2022-12-08T09:26:56;-7.70;99.90
21580;DHT22;10951;59.656;9.666;2022-12-08T09:29:23;-7.70;99.90
21580;DHT22;10951;59.656;9.666;2022-12-08T09:31:54;-7.70;99.90
21580;DHT22;10951;59.656;9.666;2022-12-08T09:34:22;-7.70;99.90
21580;DHT22;10951;59.656;9.666;2022-12-08T09:36:49;-7.80;99.90
21580;DHT22;10951;59.656;9.666;2022-12-08T09:39:16;-7.80;99.90
21580;DHT22;10951;59.656;9.666;2022-12-08T09:41:47;-7.80;99.90
21580;DHT22;10951;59.656;9.666;2022-12-08T09:47:34;-7.80;99.90
21580;DHT22;10951;59.656;9.666;2022-12-08T09:50:06;-7.80;99.90
21580;DHT22;10951;59.656;9.666;2022-12-08T09:55:49;-7.90;99.90
21580;DHT22;10951;59.656;9.666;2022-12-08T10:01:10;-7.80;99.90
21580;DHT22;10951;59.656;9.666;2022-12-08T10:03:37;-7.70;99.90
21580;DHT22;10951;59.656;9.666;2022-12-08T10:11:50;-7.70;99.90
21580;DHT22;10951;59.656;9.666;2022-12-08T10:19:41;-7.70;99.90
21580;DHT22;10951;59.656;9.666;2022-12-08T10:22:21;-7.70;99.90
21580;DHT22;10951;59.656;9.666;2022-12-08T10:25:03;-7.70;99.90
21580;DHT22;10951;59.656;9.666;2022-12-08T10:27:33;-7.70;99.90
21580;DHT22;10951;59.656;9.666;2022-12-08T10:32:52;-7.60;99.90
21580;DHT22;10951;59.656;9.666;2022-12-08T10:35:21;-7.50;99.90
21580;DHT22;10951;59.656;9.666;2022-12-08T10:38:00;-7.40;99.90
21580;DHT22;10951;59.656;9.666;2022-12-08T10:40:33;-7.40;99.90
21580;DHT22;10951;59.656;9.666;2022-12-08T10:43:34;-7.30;99.90
21580;DHT22;10951;59.656;9.666;2022-12-08T10:48:51;-7.00;99.90
21580;DHT22;10951;59.656;9.666;2022-12-08T10:51:51;-7.00;99.90
21580;DHT22;10951;59.656;9.666;2022-12-08T10:54:32;-6.90;99.70
21580;DHT22;10951;59.656;9.666;2022-12-08T10:57:00;-6.80;99.80
21580;DHT22;10951;59.656;9.666;2022-12-08T10:59:27;-6.80;99.90
21580;DHT22;10951;59.656;9.666;2022-12-08T11:01:55;-6.80;99.60
21580;DHT22;10951;59.656;9.666;2022-12-08T11:04:34;-6.70;99.20
21580;DHT22;10951;59.656;9.666;2022-12-08T11:07:04;-6.70;98.80
21580;DHT22;10951;59.656;9.666;2022-12-08T11:09:47;-6.80;98.80
21580;DHT22;10951;59.656;9.666;2022-12-08T11:12:21;-6.80;98.80
21580;DHT22;10951;59.656;9.666;2022-12-08T11:14:58;-6.90;99.00
21580;DHT22;10951;59.656;9.666;2022-12-08T11:17:35;-7.00;99.20
21580;DHT22;10951;59.656;9.666;2022-12-08T11:22:50;-7.10;99.80
21580;DHT22;10951;59.656;9.666;2022-12-08T11:25:25;-7.10;99.90
21580;DHT22;10951;59.656;9.666;2022-12-08T11:27:56;-7.20;99.90
21580;DHT22;10951;59.656;9.666;2022-12-08T11:30:37;-7.20;99.90
21580;DHT22;10951;59.656;9.666;2022-12-08T11:33:20;-7.20;99.90
21580;DHT22;10951;59.656;9.666;2022-12-08T11:36:09;-7.20;99.90
21580;DHT22;10951;59.656;9.666;2022-12-08T11:38:43;-7.10;99.90
21580;DHT22;10951;59.656;9.666;2022-12-08T11:41:17;-7.00;99.90
21580;DHT22;10951;59.656;9.666;2022-12-08T11:46:23;-7.00;99.50
21580;DHT22;10951;59.656;9.666;2022-12-08T11:49:04;-7.00;99.60
21580;DHT22;10951;59.656;9.666;2022-12-08T11:51:47;-6.90;99.60
21580;DHT22;10951;59.656;9.666;2022-12-08T11:54:35;-6.90;99.80
21580;DHT22;10951;59.656;9.666;2022-12-08T11:57:09;-6.80;99.80
21580;DHT22;10951;59.656;9.666;2022-12-08T11:59:44;-6.80;99.70
21580;DHT22;10951;59.656;9.666;2022-12-08T12:02:17;-6.70;99.70
21580;DHT22;10951;59.656;9.666;2022-12-08T12:05:08;-6.60;99.60
21580;DHT22;10951;59.656;9.666;2022-12-08T12:20:58;-6.30;99.60
21580;DHT22;10951;59.656;9.666;2022-12-08T12:26:24;-6.20;99.40
21580;DHT22;10951;59.656;9.666;2022-12-08T12:31:23;-6.10;99.30
21580;DHT22;10951;59.656;9.666;2022-12-08T12:33:54;-6.10;99.60
21580;DHT22;10951;59.656;9.666;2022-12-08T12:36:22;-6.00;99.50
21580;DHT22;10951;59.656;9.666;2022-12-08T12:38:53;-6.00;99.00
21580;DHT22;10951;59.656;9.666;2022-12-08T13:02:45;-5.70;99.20
21580;DHT22;10951;59.656;9.666;2022-12-08T13:05:24;-5.80;99.30
21580;DHT22;10951;59.656;9.666;2022-12-08T13:10:32;-5.70;99.70
21580;DHT22;10951;59.656;9.666;2022-12-08T13:15:46;-5.70;99.90
21580;DHT22;10951;59.656;9.666;2022-12-08T13:21:27;-5.70;99.90
21580;DHT22;10951;59.656;9.666;2022-12-08T13:29:34;-5.70;99.90
21580;DHT22;10951;59.656;9.666;2022-12-08T13:34:59;-5.70;99.90
21580;DHT22;10951;59.656;9.666;2022-12-08T13:37:46;-5.70;99.90
21580;DHT22;10951;59.656;9.666;2022-12-08T13:40:23;-5.70;99.90
21580;DHT22;10951;59.656;9.666;2022-12-08T13:43:08;-5.70;99.90
21580;DHT22;10951;59.656;9.666;2022-12-08T13:45:40;-5.70;99.90
21580;DHT22;10951;59.656;9.666;2022-12-08T13:48:34;-5.70;99.90
21580;DHT22;10951;59.656;9.666;2022-12-08T13:51:44;-5.60;99.90
21580;DHT22;10951;59.656;9.666;2022-12-08T13:54:35;-5.60;99.90
21580;DHT22;10951;59.656;9.666;2022-12-08T13:57:28;-5.60;99.90
21580;DHT22;10951;59.656;9.666;2022-12-08T14:00:33;-5.70;99.90
21580;DHT22;10951;59.656;9.666;2022-12-08T14:02:59;-5.60;99.90
21580;DHT22;10951;59.656;9.666;2022-12-08T14:05:38;-5.60;99.90
21580;DHT22;10951;59.656;9.666;2022-12-08T14:08:30;-5.60;99.90
21580;DHT22;10951;59.656;9.666;2022-12-08T14:11:34;-5.60;99.90
21580;DHT22;10951;59.656;9.666;2022-12-08T14:14:05;-5.60;99.90
21580;DHT22;10951;59.656;9.666;2022-12-08T14:16:47;-5.60;99.90
21580;DHT22;10951;59.656;9.666;2022-12-08T14:19:26;-5.60;99.90
21580;DHT22;10951;59.656;9.666;2022-12-08T14:21:59;-5.70;99.90
21580;DHT22;10951;59.656;9.666;2022-12-08T14:24:30;-5.70;99.90
21580;DHT22;10951;59.656;9.666;2022-12-08T14:27:03;-5.80;99.90
21580;DHT22;10951;59.656;9.666;2022-12-08T14:29:45;-5.80;99.90
21580;DHT22;10951;59.656;9.666;2022-12-08T14:32:25;-5.80;99.90
21580;DHT22;10951;59.656;9.666;2022-12-08T14:35:01;-5.80;99.90
21580;DHT22;10951;59.656;9.666;2022-12-08T14:37:42;-5.80;99.90
21580;DHT22;10951;59.656;9.666;2022-12-08T14:42:53;-5.80;99.90
21580;DHT22;10951;59.656;9.666;2022-12-08T14:45:21;-5.80;99.90
21580;DHT22;10951;59.656;9.666;2022-12-08T14:47:48;-5.80;99.90
21580;DHT22;10951;59.656;9.666;2022-12-08T14:50:38;-5.70;99.90
21580;DHT22;10951;59.656;9.666;2022-12-08T14:53:12;-5.70;99.90
21580;DHT22;10951;59.656;9.666;2022-12-08T14:55:40;-5.70;99.90
21580;DHT22;10951;59.656;9.666;2022-12-08T15:00:46;-5.80;99.90
21580;DHT22;10951;59.656;9.666;2022-12-08T15:03:15;-5.90;99.90
21580;DHT22;10951;59.656;9.666;2022-12-08T15:05:43;-5.90;99.90
21580;DHT22;10951;59.656;9.666;2022-12-08T15:08:10;-5.90;99.90
21580;DHT22;10951;59.656;9.666;2022-12-08T15:10:38;-5.80;99.90
21580;DHT22;10951;59.656;9.666;2022-12-08T15:21:05;-5.80;99.90
21580;DHT22;10951;59.656;9.666;2022-12-08T15:23:43;-5.90;99.90
21580;DHT22;10951;59.656;9.666;2022-12-08T15:26:33;-5.90;99.90
21580;DHT22;10951;59.656;9.666;2022-12-08T15:29:15;-5.90;99.90
21580;DHT22;10951;59.656;9.666;2022-12-08T15:31:44;-5.90;99.90
21580;DHT22;10951;59.656;9.666;2022-12-08T15:34:11;-5.80;99.90
21580;DHT22;10951;59.656;9.666;2022-12-08T15:36:38;-5.80;99.90
21580;DHT22;10951;59.656;9.666;2022-12-08T15:39:30;-5.70;99.90
21580;DHT22;10951;59.656;9.666;2022-12-08T15:41:59;-5.70;99.90
21580;DHT22;10951;59.656;9.666;2022-12-08T15:44:26;-5.70;99.90
21580;DHT22;10951;59.656;9.666;2022-12-08T15:46:53;-5.60;99.90
21580;DHT22;10951;59.656;9.666;2022-12-08T15:49:22;-5.50;99.90
21580;DHT22;10951;59.656;9.666;2022-12-08T15:51:50;-5.50;99.90
21580;DHT22;10951;59.656;9.666;2022-12-08T15:54:30;-5.50;99.90
21580;DHT22;10951;59.656;9.666;2022-12-08T15:56:57;-5.50;99.90
21580;DHT22;10951;59.656;9.666;2022-12-08T15:59:44;-5.50;99.90
21580;DHT22;10951;59.656;9.666;2022-12-08T16:02:12;-5.40;99.90
21580;DHT22;10951;59.656;9.666;2022-12-08T16:04:47;-5.30;99.90
21580;DHT22;10951;59.656;9.666;2022-12-08T16:07:34;-5.20;99.90
21580;DHT22;10951;59.656;9.666;2022-12-08T16:10:05;-5.20;99.90
21580;DHT22;10951;59.656;9.666;2022-12-08T16:12:33;-5.10;99.90
21580;DHT22;10951;59.656;9.666;2022-12-08T16:15:41;-5.10;99.90
21580;DHT22;10951;59.656;9.666;2022-12-08T16:18:28;-5.00;99.90
21580;DHT22;10951;59.656;9.666;2022-12-08T16:20:55;-5.00;99.90
21580;DHT22;10951;59.656;9.666;2022-12-08T16:23:43;-5.00;99.90
21580;DHT22;10951;59.656;9.666;2022-12-08T16:26:16;-4.90;99.90
21580;DHT22;10951;59.656;9.666;2022-12-08T16:29:05;-4.90;99.90
21580;DHT22;10951;59.656;9.666;2022-12-08T16:31:32;-4.90;99.90
21580;DHT22;10951;59.656;9.666;2022-12-08T16:33:59;-4.90;99.90
21580;DHT22;10951;59.656;9.666;2022-12-08T16:36:26;-4.80;99.90
21580;DHT22;10951;59.656;9.666;2022-12-08T16:38:53;-4.80;99.90
21580;DHT22;10951;59.656;9.666;2022-12-08T16:41:20;-4.70;99.90
21580;DHT22;10951;59.656;9.666;2022-12-08T16:44:05;-4.70;99.90
21580;DHT22;10951;59.656;9.666;2022-12-08T16:46:32;-4.70;99.90
21580;DHT22;10951;59.656;9.666;2022-12-08T16:49:00;-4.70;99.90
21580;DHT22;10951;59.656;9.666;2022-12-08T16:51:27;-4.70;99.90
21580;DHT22;10951;59.656;9.666;2022-12-08T16:53:54;-4.70;99.90
21580;DHT22;10951;59.656;9.666;2022-12-08T16:56:22;-4.60;99.90
21580;DHT22;10951;59.656;9.666;2022-12-08T16:58:58;-4.60;99.90
21580;DHT22;10951;59.656;9.666;2022-12-08T17:01:25;-4.70;99.90
21580;DHT22;10951;59.656;9.666;2022-12-08T17:03:52;-4.60;99.90
21580;DHT22;10951;59.656;9.666;2022-12-08T17:06:39;-4.60;99.90
21580;DHT22;10951;59.656;9.666;2022-12-08T17:09:06;-4.60;99.90
21580;DHT22;10951;59.656;9.666;2022-12-08T17:11:33;-4.60;99.90
21580;DHT22;10951;59.656;9.666;2022-12-08T17:14:09;-4.60;99.90
21580;DHT22;10951;59.656;9.666;2022-12-08T17:16:36;-4.60;99.90
21580;DHT22;10951;59.656;9.666;2022-12-08T17:19:03;-4.60;99.90
21580;DHT22;10951;59.656;9.666;2022-12-08T17:21:31;-4.60;99.90
21580;DHT22;10951;59.656;9.666;2022-12-08T17:23:57;-4.60;99.90
21580;DHT22;10951;59.656;9.666;2022-12-08T17:26:24;-4.60;99.90
21580;DHT22;10951;59.656;9.666;2022-12-08T17:28:51;-4.60;99.90
21580;DHT22;10951;59.656;9.666;2022-12-08T17:31:28;-4.70;99.90
21580;DHT22;10951;59.656;9.666;2022-12-08T17:34:01;-4.70;99.90
21580;DHT22;10951;59.656;9.666;2022-12-08T17:36:28;-4.70;99.70
21580;DHT22;10951;59.656;9.666;2022-12-08T17:38:58;-4.80;99.50
21580;DHT22;10951;59.656;9.666;2022-12-08T17:41:25;-4.80;99.30
21580;DHT22;10951;59.656;9.666;2022-12-08T17:43:52;-4.90;99.20
21580;DHT22;10951;59.656;9.666;2022-12-08T17:46:20;-4.90;99.30
21580;DHT22;10951;59.656;9.666;2022-12-08T17:48:47;-4.90;99.10
21580;DHT22;10951;59.656;9.666;2022-12-08T17:51:14;-4.90;99.20
21580;DHT22;10951;59.656;9.666;2022-12-08T17:53:41;-5.00;98.90
21580;DHT22;10951;59.656;9.666;2022-12-08T17:56:18;-5.00;99.00
21580;DHT22;10951;59.656;9.666;2022-12-08T17:58:45;-5.10;99.00
21580;DHT22;10951;59.656;9.666;2022-12-08T18:01:21;-5.10;99.20
21580;DHT22;10951;59.656;9.666;2022-12-08T18:03:48;-5.10;99.30
21580;DHT22;10951;59.656;9.666;2022-12-08T18:06:15;-5.10;99.40
21580;DHT22;10951;59.656;9.666;2022-12-08T18:08:45;-5.10;99.50